Time;durP1;ratioP1;P1;durP2;ratioP2;P2;SDS_P1;SDS_P2;PMS_P1;PMS_P2;Temp;Humidity;BMP_temperature;BMP_pressure;BME280_temperature;BME280_humidity;BME280_pressure;Samples;Min_cycle;Max_cycle;Signal;HPM_P1;HPM_P2
2023/02/13 00:02:04;;;;;;;;;;;;;;;;;;5059917;28;19966;-84
2023/02/13 00:04:30;;;;;;;;;;;;;;;;;;5061207;28;19924;-84
2023/02/13 00:06:56;;;;;;;;;;;;;;;;;;5060818;28;19951;-84
2023/02/13 00:09:22;;;;;;;;;;;;;;;;;;5054901;28;20571;-84
2023/02/13 00:11:48;;;;;;;;;;;;;;;;;;5075732;28;19928;-84
2023/02/13 00:14:14;;;;;;;;;;;;;;;;;;5066332;27;19920;-84
2023/02/13 00:16:40;;;;;;;;;;;;;;;;;;5067591;28;20010;-84
2023/02/13 00:19:05;;;;;;;;;;;;;;;;;;5091202;28;19928;-84
2023/02/13 00:21:31;;;;;;;;;;;;;;;;;;5074032;28;19970;-84
2023/02/13 00:23:57;;;;;;;;;;;;;;;;;;5075286;28;20310;-84
2023/02/13 00:26:23;;;;;;;;;;;;;;;;;;5062316;28;19928;-84
2023/02/13 00:28:49;;;;;;;;;;;;;;;;;;5055364;28;19947;-84
2023/02/13 00:31:15;;;;;;;;;;;;;;;;;;5052043;28;20485;-84
2023/02/13 00:33:41;;;;;;;;;;;;;;;;;;5065241;28;19920;-84
2023/02/13 00:36:07;;;;;;;;;;;;;;;;;;5064228;28;19935;-84
2023/02/13 00:38:33;;;;;;;;;;;;;;;;;;5063189;28;19927;-84
2023/02/13 00:40:59;;;;;;;;;;;;;;;;;;5059088;28;19923;-84
2023/02/13 00:43:25;;;;;;;;;;;;;;;;;;5060921;28;19974;-84
2023/02/13 00:45:51;;;;;;;;;;;;;;;;;;5059242;28;19975;-84
2023/02/13 00:48:17;;;;;;;;;;;;;;;;;;5062004;28;19973;-84
2023/02/13 00:50:42;;;;;;;;;;;;;;;;;;5053178;28;20374;-84
2023/02/13 00:53:08;;;;;;;;;;;;;;;;;;5060713;28;19923;-84
2023/02/13 00:55:34;;;;;;;;;;;;;;;;;;5061797;28;20382;-84
2023/02/13 00:58:00;;;;;;;;;;;;;;;;;;5061463;28;19973;-84
2023/02/13 01:00:26;;;;;;;;;;;;;;;;;;5068726;28;19958;-84
2023/02/13 01:02:52;;;;;;;;;;;;;;;;;;5075175;28;19967;-84
2023/02/13 01:05:18;;;;;;;;;;;;;;;;;;5078764;28;20279;-84
2023/02/13 01:07:44;;;;;;;;;;;;;;;;;;5058375;28;20382;-84
2023/02/13 01:10:10;;;;;;;;;;;;;;;;;;5061297;28;19928;-84
2023/02/13 01:12:36;;;;;;;;;;;;;;;;;;5050498;28;19941;-84
2023/02/13 01:15:02;;;;;;;;;;;;;;;;;;5058522;28;21355;-84
2023/02/13 01:17:28;;;;;;;;;;;;;;;;;;5075748;28;19920;-84
2023/02/13 01:19:54;;;;;;;;;;;;;;;;;;5073830;28;19927;-84
2023/02/13 01:22:19;;;;;;;;;;;;;;;;;;5070085;28;19920;-84
2023/02/13 01:24:45;;;;;;;;;;;;;;;;;;5062697;28;19923;-84
2023/02/13 01:27:11;;;;;;;;;;;;;;;;;;5055492;28;20018;-84
2023/02/13 01:29:37;;;;;;;;;;;;;;;;;;5060030;28;19958;-84
2023/02/13 01:32:03;;;;;;;;;;;;;;;;;;5055623;28;20341;-84
2023/02/13 01:34:29;;;;;;;;;;;;;;;;;;5061810;28;20444;-84
2023/02/13 01:36:55;;;;;;;;;;;;;;;;;;5057662;28;19927;-84
2023/02/13 01:39:21;;;;;;;;;;;;;;;;;;5069515;28;19920;-85
2023/02/13 01:41:47;;;;;;;;;;;;;;;;;;5050138;28;20602;-85
2023/02/13 01:44:13;;;;;;;;;;;;;;;;;;5060053;28;19970;-84
2023/02/13 01:46:39;;;;;;;;;;;;;;;;;;5069593;28;19963;-84
2023/02/13 01:49:05;;;;;;;;;;;;;;;;;;5057434;28;19919;-84
2023/02/13 01:51:31;;;;;;;;;;;;;;;;;;5062225;28;19920;-83
2023/02/13 01:53:57;;;;;;;;;;;;;;;;;;5053693;28;20292;-84
2023/02/13 01:56:23;;;;;;;;;;;;;;;;;;5063126;28;20543;-85
2023/02/13 01:58:49;;;;;;;;;;;;;;;;;;5083317;28;19978;-83
2023/02/13 02:01:15;;;;;;;;;;;;;;;;;;5077069;28;19928;-84
2023/02/13 02:03:41;;;;;;;;;;;;;;;;;;5050593;28;20050;-84
2023/02/13 02:06:06;;;;;;;;;;;;;;;;;;5054124;28;20007;-84
2023/02/13 02:08:32;;;;;;;;;;;;;;;;;;5076127;28;20387;-84
2023/02/13 02:10:58;;;;;;;;;;;;;;;;;;5054708;28;20429;-84
2023/02/13 02:13:24;;;;;;;;;;;;;;;;;;5064573;28;19985;-84
2023/02/13 02:15:50;;;;;;;;;;;;;;;;;;5053650;28;19951;-83
2023/02/13 02:18:16;;;;;;;;;;;;;;;;;;5054587;28;19970;-84
2023/02/13 02:20:42;;;;;;;;;;;;;;;;;;5057075;28;19920;-84
2023/02/13 02:23:08;;;;;;;;;;;;;;;;;;5053489;28;19936;-83
2023/02/13 02:25:34;;;;;;;;;;;;;;;;;;5058428;28;19977;-84
2023/02/13 02:28:00;;;;;;;;;;;;;;;;;;5057041;28;20158;-84
2023/02/13 02:30:26;;;;;;;;;;;;;;;;;;5049660;28;19955;-84
2023/02/13 02:32:52;;;;;;;;;;;;;;;;;;5055917;28;19928;-84
2023/02/13 02:35:18;;;;;;;;;;;;;;;;;;5068663;28;19924;-85
2023/02/13 02:37:44;;;;;;;;;;;;;;;;;;5074439;28;20011;-84
2023/02/13 02:40:10;;;;;;;;;;;;;;;;;;5055936;28;19923;-84
2023/02/13 02:42:35;;;;;;;;;;;;;;;;;;5073410;28;19923;-84
2023/02/13 02:45:01;;;;;;;;;;;;;;;;;;5055103;28;19923;-83
2023/02/13 02:50:12;;;;;;;;;;;;;;;;;;5073593;28;19928;-84
2023/02/13 02:52:38;;;;;;;;;;;;;;;;;;5071223;28;19926;-84
2023/02/13 02:55:07;;;;;;;;;;;;;;;;;;5058255;28;19958;-84
2023/02/13 03:14:13;;;;;;;;;;;;;;;;;;5073366;28;19965;-84
2023/02/13 03:22:17;;;;;;;;;;;;;;;;;;5072804;28;19923;-84
2023/02/13 03:24:43;;;;;;;;;;;;;;;;;;5056387;28;19919;-84
2023/02/13 03:27:09;;;;;;;;;;;;;;;;;;5056124;28;20505;-85
2023/02/13 03:32:20;;;;;;;;;;;;;;;;;;5073404;28;20370;-84
2023/02/13 03:40:15;;;;;;;;;;;;;;;;;;5069380;28;20248;-83
2023/02/13 03:42:41;;;;;;;;;;;;;;;;;;5055349;28;20160;-85
2023/02/13 03:47:52;;;;;;;;;;;;;;;;;;5063633;28;19930;-84
2023/02/13 03:50:18;;;;;;;;;;;;;;;;;;5056050;28;19932;-85
2023/02/13 03:52:44;;;;;;;;;;;;;;;;;;5060599;28;20270;-84
2023/02/13 04:00:39;;;;;;;;;;;;;;;;;;5075127;28;19920;-84
2023/02/13 04:03:05;;;;;;;;;;;;;;;;;;5052936;28;19943;-84
2023/02/13 04:05:31;;;;;;;;;;;;;;;;;;5054829;28;20398;-85
2023/02/13 04:07:57;;;;;;;;;;;;;;;;;;5056660;28;19923;-84
2023/02/13 04:10:23;;;;;;;;;;;;;;;;;;5060628;28;20006;-84
2023/02/13 04:12:49;;;;;;;;;;;;;;;;;;5076775;28;20034;-84
2023/02/13 04:15:15;;;;;;;;;;;;;;;;;;5053825;28;20462;-84
2023/02/13 04:17:41;;;;;;;;;;;;;;;;;;5089381;28;20650;-84
2023/02/13 04:20:07;;;;;;;;;;;;;;;;;;5058144;28;19924;-84
2023/02/13 04:22:32;;;;;;;;;;;;;;;;;;5058235;28;19920;-84
2023/02/13 04:24:58;;;;;;;;;;;;;;;;;;5074349;28;19962;-84
2023/02/13 04:27:24;;;;;;;;;;;;;;;;;;5075212;28;20438;-85
2023/02/13 04:29:50;;;;;;;;;;;;;;;;;;5058395;28;19976;-84
2023/02/13 04:32:16;;;;;;;;;;;;;;;;;;5054724;28;20680;-84
2023/02/13 04:34:42;;;;;;;;;;;;;;;;;;5057992;28;20394;-84
2023/02/13 04:37:08;;;;;;;;;;;;;;;;;;5061323;28;19919;-85
2023/02/13 04:39:34;;;;;;;;;;;;;;;;;;5075130;28;20359;-83
2023/02/13 04:42:00;;;;;;;;;;;;;;;;;;5073076;28;19927;-84
2023/02/13 04:44:26;;;;;;;;;;;;;;;;;;5056544;28;20482;-84
2023/02/13 04:46:52;;;;;;;;;;;;;;;;;;5062341;28;19919;-82
2023/02/13 04:49:18;;;;;;;;;;;;;;;;;;5059342;28;19932;-82
2023/02/13 04:51:44;;;;;;;;;;;;;;;;;;5059475;28;19927;-82
2023/02/13 04:54:09;;;;;;;;;;;;;;;;;;5057333;28;19920;-81
2023/02/13 04:56:35;;;;;;;;;;;;;;;;;;5085160;28;20389;-82
2023/02/13 04:59:01;;;;;;;;;;;;;;;;;;5070586;28;20836;-83
2023/02/13 05:01:27;;;;;;;;;;;;;;;;;;5071900;28;19920;-82
2023/02/13 05:03:53;;;;;;;;;;;;;;;;;;5070421;28;20554;-82
2023/02/13 05:06:19;;;;;;;;;;;;;;;;;;5084112;23;20288;-82
2023/02/13 05:08:45;;;;;;;;;;;;;;;;;;5091130;27;20332;-82
2023/02/13 05:11:11;;;;;;;;;;;;;;;;;;5084814;27;20715;-82
2023/02/13 05:13:37;;;;;;;;;;;;;;;;;;5101563;27;19971;-82
2023/02/13 05:16:03;;;;;;;;;;;;;;;;;;5081426;27;19990;-81
2023/02/13 05:18:29;;;;;;;;;;;;;;;;;;5088119;27;20045;-82
2023/02/13 05:23:39;;;;;;;;;;;;;;;;;;5087885;27;20266;-82
2023/02/13 05:26:05;;;;;;;;;;;;;;;;;;5075381;27;21120;-81
2023/02/13 05:31:16;;;;;;;;;;;;;;;;;;5091260;27;19986;-80
2023/02/13 05:33:42;;;;;;;;;;;;;;;;;;5081098;27;20049;-82
2023/02/13 05:36:08;;;;;;;;;;;;;;;;;;5081620;27;20354;-81
2023/02/13 05:38:34;;;;;;;;;;;;;;;;;;5081918;27;19981;-82
2023/02/13 05:41:00;;;;;;;;;;;;;;;;;;5074956;27;19927;-82
2023/02/13 05:43:26;;;;;;;;;;;;;;;;;;5073544;27;20401;-83
2023/02/13 05:45:52;;;;;;;;;;;;;;;;;;5075137;27;20113;-82
2023/02/13 05:48:18;;;;;;;;;;;;;;;;;;5092007;27;20040;-83
2023/02/13 05:50:44;;;;;;;;;;;;;;;;;;5075939;27;19938;-83
2023/02/13 05:53:09;;;;;;;;;;;;;;;;;;5079903;27;21101;-83
2023/02/13 05:55:35;;;;;;;;;;;;;;;;;;5085796;27;19927;-82
2023/02/13 05:58:01;;;;;;;;;;;;;;;;;;5089722;27;20520;-83
2023/02/13 06:00:27;;;;;;;;;;;;;;;;;;5087270;27;19992;-83
2023/02/13 06:02:53;;;;;;;;;;;;;;;;;;5089138;27;19968;-83
2023/02/13 06:05:19;;;;;;;;;;;;;;;;;;5092325;27;19970;-83
2023/02/13 06:07:45;;;;;;;;;;;;;;;;;;5091325;27;19923;-82
2023/02/13 06:10:11;;;;;;;;;;;;;;;;;;5105463;27;19931;-82
2023/02/13 06:12:37;;;;;;;;;;;;;;;;;;5083823;27;19937;-83
2023/02/13 06:15:03;;;;;;;;;;;;;;;;;;5078618;27;19927;-82
2023/02/13 06:17:29;;;;;;;;;;;;;;;;;;5087924;27;20232;-82
2023/02/13 06:19:55;;;;;;;;;;;;;;;;;;5083073;27;19934;-82
2023/02/13 06:22:21;;;;;;;;;;;;;;;;;;5085615;27;19927;-83
2023/02/13 06:24:47;;;;;;;;;;;;;;;;;;5087005;27;19923;-83
2023/02/13 06:27:13;;;;;;;;;;;;;;;;;;5085536;27;20354;-83
2023/02/13 06:29:38;;;;;;;;;;;;;;;;;;5084787;27;19927;-82
2023/02/13 06:32:04;;;;;;;;;;;;;;;;;;5097050;27;19997;-83
2023/02/13 06:34:30;;;;;;;;;;;;;;;;;;5083134;27;21116;-83
2023/02/13 06:36:56;;;;;;;;;;;;;;;;;;5078395;27;20010;-83
2023/02/13 06:39:22;;;;;;;;;;;;;;;;;;5098837;27;19947;-83
2023/02/13 06:41:48;;;;;;;;;;;;;;;;;;5092014;27;19927;-83
2023/02/13 06:44:14;;;;;;;;;;;;;;;;;;5101587;27;19924;-83
2023/02/13 06:46:40;;;;;;;;;;;;;;;;;;5102526;27;19927;-83
2023/02/13 06:49:06;;;;;;;;;;;;;;;;;;5093831;27;19927;-82
2023/02/13 06:51:32;;;;;;;;;;;;;;;;;;5091457;27;19927;-83
2023/02/13 06:53:58;;;;;;;;;;;;;;;;;;5082508;27;20329;-83
2023/02/13 06:56:25;;;;;;;;;;;;;;;;;;5090180;27;20166;-83
2023/02/13 06:58:51;;;;;;;;;;;;;;;;;;5097994;27;20296;-83
2023/02/13 07:01:17;;;;;;;;;;;;;;;;;;5089890;27;19945;-83
2023/02/13 07:03:43;;;;;;;;;;;;;;;;;;5091743;27;19923;-84
2023/02/13 07:06:08;;;;;;;;;;;;;;;;;;5091874;27;20013;-83
2023/02/13 07:08:34;;;;;;;;;;;;;;;;;;5112100;27;20153;-83
2023/02/13 07:11:00;;;;;;;;;;;;;;;;;;5097984;27;19927;-83
2023/02/13 07:13:26;;;;;;;;;;;;;;;;;;5107898;27;20342;-83
2023/02/13 07:15:52;;;;;;;;;;;;;;;;;;5090859;27;20568;-83
2023/02/13 07:18:18;;;;;;;;;;;;;;;;;;5094753;27;19924;-83
2023/02/13 07:20:44;;;;;;;;;;;;;;;;;;5096344;27;20006;-83
2023/02/13 07:23:10;;;;;;;;;;;;;;;;;;5092034;27;20026;-83
2023/02/13 07:25:36;;;;;;;;;;;;;;;;;;5090797;27;19949;-83
2023/02/13 07:28:02;;;;;;;;;;;;;;;;;;5084900;27;20011;-83
2023/02/13 07:30:28;;;;;;;;;;;;;;;;;;5087729;27;21405;-83
2023/02/13 07:32:54;;;;;;;;;;;;;;;;;;5086175;27;20208;-83
2023/02/13 07:35:20;;;;;;;;;;;;;;;;;;5100463;27;19919;-83
2023/02/13 07:37:46;;;;;;;;;;;;;;;;;;5087887;27;19946;-83
2023/02/13 07:40:12;;;;;;;;;;;;;;;;;;5086308;27;20446;-83
2023/02/13 07:42:37;;;;;;;;;;;;;;;;;;5087205;27;19920;-83
2023/02/13 07:45:05;;;;;;;;;;;;;;;;;;5095207;27;19924;-83
2023/02/13 07:47:31;;;;;;;;;;;;;;;;;;5091479;27;19971;-83
2023/02/13 07:49:56;;;;;;;;;;;;;;;;;;5094313;27;19923;-83
2023/02/13 07:52:22;;;;;;;;;;;;;;;;;;5092707;27;20138;-83
2023/02/13 07:54:50;;;;;;;;;;;;;;;;;;5098076;27;19962;-83
2023/02/13 07:57:16;;;;;;;;;;;;;;;;;;5104726;27;19923;-84
2023/02/13 07:59:42;;;;;;;;;;;;;;;;;;5099986;27;19926;-82
2023/02/13 08:02:07;;;;;;;;;;;;;;;;;;5101491;27;19981;-83
2023/02/13 08:04:33;;;;;;;;;;;;;;;;;;5101634;27;20006;-83
2023/02/13 08:06:59;;;;;;;;;;;;;;;;;;5092620;27;20282;-83
2023/02/13 08:12:10;;;;;;;;;;;;;;;;;;5118901;27;19923;-83
2023/02/13 08:14:36;;;;;;;;;;;;;;;;;;5123308;27;20002;-82
2023/02/13 08:17:02;;;;;;;;;;;;;;;;;;5104416;27;19927;-83
2023/02/13 08:19:28;;;;;;;;;;;;;;;;;;5111641;27;19930;-83
2023/02/13 08:21:54;;;;;;;;;;;;;;;;;;5099076;27;19959;-82
2023/02/13 08:24:20;;;;;;;;;;;;;;;;;;5101123;27;19981;-83
2023/02/13 08:26:46;;;;;;;;;;;;;;;;;;5092255;27;19919;-83
2023/02/13 08:29:12;;;;;;;;;;;;;;;;;;5088296;27;19927;-83
2023/02/13 08:31:38;;;;;;;;;;;;;;;;;;5098830;27;19923;-83
2023/02/13 08:34:04;;;;;;;;;;;;;;;;;;5110514;27;19926;-83
2023/02/13 08:36:29;;;;;;;;;;;;;;;;;;5088776;27;19945;-83
2023/02/13 08:38:55;;;;;;;;;;;;;;;;;;5106218;27;20389;-83
2023/02/13 08:41:21;;;;;;;;;;;;;;;;;;5094308;27;20558;-83
2023/02/13 08:43:48;;;;;;;;;;;;;;;;;;5095540;27;19928;-83
2023/02/13 08:46:14;;;;;;;;;;;;;;;;;;5093900;27;19955;-82
2023/02/13 08:48:40;;;;;;;;;;;;;;;;;;5093267;27;19930;-84
2023/02/13 08:51:06;;;;;;;;;;;;;;;;;;5096039;27;19920;-83
2023/02/13 08:53:32;;;;;;;;;;;;;;;;;;5089910;27;20323;-83
2023/02/13 08:55:58;;;;;;;;;;;;;;;;;;5089943;27;19928;-83
2023/02/13 08:58:24;;;;;;;;;;;;;;;;;;5088286;27;19965;-83
2023/02/13 09:00:50;;;;;;;;;;;;;;;;;;5087435;27;19936;-83
2023/02/13 09:03:16;;;;;;;;;;;;;;;;;;5087269;27;20161;-84
2023/02/13 09:05:42;;;;;;;;;;;;;;;;;;5089233;27;19919;-84
2023/02/13 09:08:10;;;;;;;;;;;;;;;;;;5091871;27;19931;-83
2023/02/13 09:10:36;;;;;;;;;;;;;;;;;;5090744;27;19987;-83
2023/02/13 09:13:02;;;;;;;;;;;;;;;;;;5081452;27;19950;-83
2023/02/13 09:15:28;;;;;;;;;;;;;;;;;;5086192;27;21126;-83
2023/02/13 09:17:54;;;;;;;;;;;;;;;;;;5096284;27;19926;-85
2023/02/13 09:20:20;;;;;;;;;;;;;;;;;;5096564;27;20004;-84
2023/02/13 09:22:46;;;;;;;;;;;;;;;;;;5098662;27;21029;-85
2023/02/13 09:25:11;;;;;;;;;;;;;;;;;;5102406;27;20505;-84
2023/02/13 09:27:40;;;;;;;;;;;;;;;;;;5119258;27;19927;-85
2023/02/13 09:30:07;;;;;;;;;;;;;;;;;;5097367;27;19931;-83
2023/02/13 09:32:33;;;;;;;;;;;;;;;;;;5100205;27;19930;-83
2023/02/13 09:34:59;;;;;;;;;;;;;;;;;;5101024;27;19919;-83
2023/02/13 09:37:25;;;;;;;;;;;;;;;;;;5096329;27;19966;-84
2023/02/13 09:39:51;;;;;;;;;;;;;;;;;;5093534;27;22564;-84
2023/02/13 09:42:17;;;;;;;;;;;;;;;;;;5095095;27;20032;-84
2023/02/13 09:44:43;;;;;;;;;;;;;;;;;;5095530;27;20409;-85
2023/02/13 09:47:09;;;;;;;;;;;;;;;;;;5097111;27;19923;-84
2023/02/13 09:49:35;;;;;;;;;;;;;;;;;;5096549;27;20001;-84
2023/02/13 09:52:01;;;;;;;;;;;;;;;;;;5091398;27;22353;-83
2023/02/13 09:54:30;;;;;;;;;;;;;;;;;;5101133;27;19949;-84
2023/02/13 09:56:59;;;;;;;;;;;;;;;;;;5101303;27;19919;-84
2023/02/13 09:59:25;;;;;;;;;;;;;;;;;;5099941;27;19933;-84
2023/02/13 10:01:51;;;;;;;;;;;;;;;;;;5109699;27;19919;-83
2023/02/13 10:04:17;;;;;;;;;;;;;;;;;;5111140;27;20356;-84
2023/02/13 10:06:49;;;;;;;;;;;;;;;;;;5098338;27;19980;-83
2023/02/13 10:09:15;;;;;;;;;;;;;;;;;;5093575;27;20233;-83
2023/02/13 10:11:41;;;;;;;;;;;;;;;;;;5085145;27;20201;-83
2023/02/13 10:14:07;;;;;;;;;;;;;;;;;;5096969;27;19919;-83
2023/02/13 10:16:33;;;;;;;;;;;;;;;;;;5087098;27;20813;-84
2023/02/13 10:18:59;;;;;;;;;;;;;;;;;;5089401;27;20147;-84
2023/02/13 10:21:25;;;;;;;;;;;;;;;;;;5093386;27;19993;-84
2023/02/13 10:23:51;;;;;;;;;;;;;;;;;;5091633;27;19927;-84
2023/02/13 10:26:17;;;;;;;;;;;;;;;;;;5082947;27;20400;-84
2023/02/13 10:28:43;;;;;;;;;;;;;;;;;;5092518;27;20358;-83
2023/02/13 10:31:09;;;;;;;;;;;;;;;;;;5092524;27;20330;-83
2023/02/13 10:33:35;;;;;;;;;;;;;;;;;;5091739;27;20780;-84
2023/02/13 10:36:04;;;;;;;;;;;;;;;;;;5102052;27;20231;-85
2023/02/13 10:38:30;;;;;;;;;;;;;;;;;;5089959;27;20106;-84
2023/02/13 10:40:56;;;;;;;;;;;;;;;;;;5095230;27;19919;-84
2023/02/13 10:43:22;;;;;;;;;;;;;;;;;;5096075;27;19926;-86
2023/02/13 10:45:48;;;;;;;;;;;;;;;;;;5107568;27;19939;-84
2023/02/13 10:48:14;;;;;;;;;;;;;;;;;;5097679;27;19934;-84
2023/02/13 10:50:39;;;;;;;;;;;;;;;;;;5094513;27;19923;-84
2023/02/13 10:53:05;;;;;;;;;;;;;;;;;;5090740;27;20363;-84
2023/02/13 10:55:31;;;;;;;;;;;;;;;;;;5104267;27;20343;-84
2023/02/13 10:57:57;;;;;;;;;;;;;;;;;;5104348;27;20365;-85
2023/02/13 11:00:23;;;;;;;;;;;;;;;;;;5089824;27;20019;-84
2023/02/13 11:02:49;;;;;;;;;;;;;;;;;;5091432;27;20290;-83
2023/02/13 11:05:15;;;;;;;;;;;;;;;;;;5094073;27;19919;-84
2023/02/13 11:07:41;;;;;;;;;;;;;;;;;;5102090;27;20396;-86
2023/02/13 11:10:07;;;;;;;;;;;;;;;;;;5092605;27;19924;-84
2023/02/13 11:12:33;;;;;;;;;;;;;;;;;;5092597;27;20156;-84
2023/02/13 11:14:59;;;;;;;;;;;;;;;;;;5092486;27;19958;-85
2023/02/13 11:17:25;;;;;;;;;;;;;;;;;;5091924;27;19990;-83
2023/02/13 11:19:51;;;;;;;;;;;;;;;;;;5100875;27;19927;-84
2023/02/13 11:22:17;;;;;;;;;;;;;;;;;;5099526;27;19972;-85
2023/02/13 11:24:43;;;;;;;;;;;;;;;;;;5102077;27;19927;-84
2023/02/13 11:27:12;;;;;;;;;;;;;;;;;;5105398;27;19919;-87
2023/02/13 11:29:38;;;;;;;;;;;;;;;;;;5098618;27;20538;-84
2023/02/13 11:32:04;;;;;;;;;;;;;;;;;;5095694;27;20028;-85
2023/02/13 11:34:30;;;;;;;;;;;;;;;;;;5102396;27;20385;-84
2023/02/13 11:36:56;;;;;;;;;;;;;;;;;;5093912;27;19920;-84
2023/02/13 11:39:22;;;;;;;;;;;;;;;;;;5098986;27;19968;-86
2023/02/13 11:41:49;;;;;;;;;;;;;;;;;;5096989;27;19946;-85
2023/02/13 11:44:15;;;;;;;;;;;;;;;;;;5095566;27;20450;-84
2023/02/13 11:46:41;;;;;;;;;;;;;;;;;;5094419;27;19927;-85
2023/02/13 11:49:07;;;;;;;;;;;;;;;;;;5091944;27;20156;-84
2023/02/13 11:51:33;;;;;;;;;;;;;;;;;;5106156;27;20010;-84
2023/02/13 11:54:00;;;;;;;;;;;;;;;;;;5108344;27;20381;-84
2023/02/13 11:56:25;;;;;;;;;;;;;;;;;;5103446;27;19927;-84
2023/02/13 11:58:51;;;;;;;;;;;;;;;;;;5095295;27;19971;-85
2023/02/13 12:01:17;;;;;;;;;;;;;;;;;;5120281;27;20390;-83
2023/02/13 12:03:43;;;;;;;;;;;;;;;;;;5100246;27;20369;-84
2023/02/13 12:06:09;;;;;;;;;;;;;;;;;;5093484;27;19982;-84
2023/02/13 12:08:35;;;;;;;;;;;;;;;;;;5110978;27;20024;-85
2023/02/13 12:11:01;;;;;;;;;;;;;;;;;;5105195;27;19995;-84
2023/02/13 12:13:27;;;;;;;;;;;;;;;;;;5109160;27;19930;-85
2023/02/13 12:15:53;;;;;;;;;;;;;;;;;;5110303;27;20434;-85
2023/02/13 12:18:19;;;;;;;;;;;;;;;;;;5094117;27;19927;-84
2023/02/13 12:20:45;;;;;;;;;;;;;;;;;;5094428;27;19947;-85
2023/02/13 12:23:11;;;;;;;;;;;;;;;;;;5089049;27;20039;-84
2023/02/13 12:25:37;;;;;;;;;;;;;;;;;;5093935;27;20051;-84
2023/02/13 12:28:03;;;;;;;;;;;;;;;;;;5108527;27;19923;-85
2023/02/13 12:30:29;;;;;;;;;;;;;;;;;;5112031;27;19959;-84
2023/02/13 12:32:54;;;;;;;;;;;;;;;;;;5098789;27;20806;-85
2023/02/13 12:35:20;;;;;;;;;;;;;;;;;;5101230;27;19947;-83
2023/02/13 12:37:46;;;;;;;;;;;;;;;;;;5120408;27;20049;-84
2023/02/13 12:40:14;;;;;;;;;;;;;;;;;;5092707;27;19927;-84
2023/02/13 12:42:40;;;;;;;;;;;;;;;;;;5096996;27;19927;-85
2023/02/13 12:45:06;;;;;;;;;;;;;;;;;;5113028;27;20389;-83
2023/02/13 12:47:32;;;;;;;;;;;;;;;;;;5098215;27;19934;-84
2023/02/13 12:49:58;;;;;;;;;;;;;;;;;;5105541;27;20021;-84
2023/02/13 12:52:24;;;;;;;;;;;;;;;;;;5101767;27;20015;-85
2023/02/13 12:54:51;;;;;;;;;;;;;;;;;;5105089;27;19919;-85
2023/02/13 12:57:17;;;;;;;;;;;;;;;;;;5113433;27;20404;-85
2023/02/13 12:59:43;;;;;;;;;;;;;;;;;;5101625;27;19958;-84
2023/02/13 13:02:09;;;;;;;;;;;;;;;;;;5119481;27;19923;-85
2023/02/13 13:04:34;;;;;;;;;;;;;;;;;;5115242;27;19928;-85
2023/02/13 13:07:00;;;;;;;;;;;;;;;;;;5104068;27;19923;-85
2023/02/13 13:09:26;;;;;;;;;;;;;;;;;;5094040;27;19938;-84
2023/02/13 13:11:52;;;;;;;;;;;;;;;;;;5098546;27;19919;-83
2023/02/13 13:14:18;;;;;;;;;;;;;;;;;;5100126;27;19927;-85
2023/02/13 13:16:44;;;;;;;;;;;;;;;;;;5112885;27;19938;-84
2023/02/13 13:19:10;;;;;;;;;;;;;;;;;;5096869;27;19961;-85
2023/02/13 13:21:36;;;;;;;;;;;;;;;;;;5103489;27;19966;-85
2023/02/13 13:24:02;;;;;;;;;;;;;;;;;;5102960;27;19930;-84
2023/02/13 13:26:30;;;;;;;;;;;;;;;;;;5097930;27;19934;-84
2023/02/13 13:28:56;;;;;;;;;;;;;;;;;;5108201;27;19927;-84
2023/02/13 13:31:24;;;;;;;;;;;;;;;;;;5102323;27;20430;-84
2023/02/13 13:33:53;;;;;;;;;;;;;;;;;;5098192;27;19971;-83
2023/02/13 13:36:19;;;;;;;;;;;;;;;;;;5093884;27;19927;-84
2023/02/13 13:38:50;;;;;;;;;;;;;;;;;;5096852;27;20404;-84
2023/02/13 13:41:16;;;;;;;;;;;;;;;;;;5098585;27;19923;-85
2023/02/13 13:43:42;;;;;;;;;;;;;;;;;;5110067;27;19927;-83
2023/02/13 13:46:08;;;;;;;;;;;;;;;;;;5096233;27;19972;-83
2023/02/13 13:48:35;;;;;;;;;;;;;;;;;;5096403;27;19937;-83
2023/02/13 13:51:01;;;;;;;;;;;;;;;;;;5093289;27;19919;-85
2023/02/13 13:53:27;;;;;;;;;;;;;;;;;;5108188;27;19930;-83
2023/02/13 13:55:55;;;;;;;;;;;;;;;;;;5098518;27;19984;-84
2023/02/13 13:58:21;;;;;;;;;;;;;;;;;;5115262;27;20411;-86
2023/02/13 14:00:47;;;;;;;;;;;;;;;;;;5121410;27;19923;-82
2023/02/13 14:03:12;;;;;;;;;;;;;;;;;;5126893;27;19919;-84
2023/02/13 14:05:42;;;;;;;;;;;;;;;;;;5105206;27;19979;-83
2023/02/13 14:08:07;;;;;;;;;;;;;;;;;;5111199;27;19919;-83
2023/02/13 14:10:33;;;;;;;;;;;;;;;;;;5095696;27;19923;-83
2023/02/13 14:13:01;;;;;;;;;;;;;;;;;;5096573;27;20010;-82
2023/02/13 14:15:27;;;;;;;;;;;;;;;;;;5099407;27;19919;-83
2023/02/13 14:17:53;;;;;;;;;;;;;;;;;;5095735;27;19923;-83
2023/02/13 14:20:19;;;;;;;;;;;;;;;;;;5100474;27;19919;-83
2023/02/13 14:22:45;;;;;;;;;;;;;;;;;;5095291;27;19938;-83
2023/02/13 14:25:11;;;;;;;;;;;;;;;;;;5100427;27;20005;-83
2023/02/13 14:27:37;;;;;;;;;;;;;;;;;;5099230;27;19934;-82
2023/02/13 14:30:04;;;;;;;;;;;;;;;;;;5096624;27;20232;-84
2023/02/13 14:32:31;;;;;;;;;;;;;;;;;;5102255;27;19971;-86
2023/02/13 14:34:57;;;;;;;;;;;;;;;;;;5100570;27;19927;-84
2023/02/13 14:37:29;;;;;;;;;;;;;;;;;;5097874;27;19965;-83
2023/02/13 14:39:55;;;;;;;;;;;;;;;;;;5095463;27;19920;-82
2023/02/13 14:42:20;;;;;;;;;;;;;;;;;;5102389;27;19923;-83
2023/02/13 14:44:46;;;;;;;;;;;;;;;;;;5107386;27;19924;-81
2023/02/13 14:47:12;;;;;;;;;;;;;;;;;;5093959;27;19923;-81
2023/02/13 14:49:38;;;;;;;;;;;;;;;;;;5093777;27;19923;-81
2023/02/13 14:52:04;;;;;;;;;;;;;;;;;;5096473;27;19969;-82
2023/02/13 14:54:30;;;;;;;;;;;;;;;;;;5093688;27;20305;-82
2023/02/13 14:56:56;;;;;;;;;;;;;;;;;;5112753;27;19983;-82
2023/02/13 14:59:22;;;;;;;;;;;;;;;;;;5090183;27;20057;-82
2023/02/13 15:01:48;;;;;;;;;;;;;;;;;;5091054;27;20390;-82
2023/02/13 15:04:14;;;;;;;;;;;;;;;;;;5091787;27;19927;-82
2023/02/13 15:06:40;;;;;;;;;;;;;;;;;;5090780;27;19923;-81
2023/02/13 15:09:06;;;;;;;;;;;;;;;;;;5097810;27;20393;-82
2023/02/13 15:11:35;;;;;;;;;;;;;;;;;;5092458;27;19934;-82
2023/02/13 15:14:01;;;;;;;;;;;;;;;;;;5095866;27;19924;-82
2023/02/13 15:16:27;;;;;;;;;;;;;;;;;;5096613;27;20346;-82
2023/02/13 15:18:54;;;;;;;;;;;;;;;;;;5089844;27;20635;-81
2023/02/13 15:21:20;;;;;;;;;;;;;;;;;;5091043;27;20010;-82
2023/02/13 15:23:46;;;;;;;;;;;;;;;;;;5087835;27;20084;-82
2023/02/13 15:26:11;;;;;;;;;;;;;;;;;;5087674;27;20485;-81
2023/02/13 15:28:37;;;;;;;;;;;;;;;;;;5095484;27;20062;-83
2023/02/13 15:31:04;;;;;;;;;;;;;;;;;;5095239;27;19965;-82
2023/02/13 15:33:30;;;;;;;;;;;;;;;;;;5090992;27;19942;-81
2023/02/13 15:35:56;;;;;;;;;;;;;;;;;;5086879;27;19919;-82
2023/02/13 15:38:21;;;;;;;;;;;;;;;;;;5089141;27;20013;-82
2023/02/13 15:40:47;;;;;;;;;;;;;;;;;;5102471;27;20525;-82
2023/02/13 15:43:13;;;;;;;;;;;;;;;;;;5093954;27;19972;-82
2023/02/13 15:45:39;;;;;;;;;;;;;;;;;;5094205;27;19973;-81
2023/02/13 15:48:05;;;;;;;;;;;;;;;;;;5107391;27;19953;-82
2023/02/13 15:50:31;;;;;;;;;;;;;;;;;;5090593;27;20420;-82
2023/02/13 15:52:57;;;;;;;;;;;;;;;;;;5088853;27;19935;-82
2023/02/13 15:55:23;;;;;;;;;;;;;;;;;;5107087;27;19927;-82
2023/02/13 15:57:49;;;;;;;;;;;;;;;;;;5095404;27;19943;-82
2023/02/13 16:00:15;;;;;;;;;;;;;;;;;;5103319;27;19966;-82
2023/02/13 16:02:41;;;;;;;;;;;;;;;;;;5106028;27;19919;-83
2023/02/13 16:05:07;;;;;;;;;;;;;;;;;;5093933;27;19927;-83
2023/02/13 16:07:33;;;;;;;;;;;;;;;;;;5096611;27;19931;-82
2023/02/13 16:09:58;;;;;;;;;;;;;;;;;;5110291;27;19966;-83
2023/02/13 16:12:24;;;;;;;;;;;;;;;;;;5091959;27;19946;-83
2023/02/13 16:14:50;;;;;;;;;;;;;;;;;;5091966;27;20505;-83
2023/02/13 16:17:16;;;;;;;;;;;;;;;;;;5113528;27;19920;-83
2023/02/13 16:19:42;;;;;;;;;;;;;;;;;;5102175;27;19919;-83
2023/02/13 16:22:08;;;;;;;;;;;;;;;;;;5092742;27;20425;-83
2023/02/13 16:24:34;;;;;;;;;;;;;;;;;;5110850;27;20382;-82
2023/02/13 16:27:01;;;;;;;;;;;;;;;;;;5092874;27;19927;-82
2023/02/13 16:29:27;;;;;;;;;;;;;;;;;;5101952;27;19923;-83
2023/02/13 16:31:53;;;;;;;;;;;;;;;;;;5107910;27;19927;-83
2023/02/13 16:34:19;;;;;;;;;;;;;;;;;;5101849;27;19926;-83
2023/02/13 16:36:45;;;;;;;;;;;;;;;;;;5115277;27;20358;-83
2023/02/13 16:39:11;;;;;;;;;;;;;;;;;;5101999;27;20393;-82
2023/02/13 16:41:37;;;;;;;;;;;;;;;;;;5096561;27;19966;-83
2023/02/13 16:44:03;;;;;;;;;;;;;;;;;;5102104;27;19962;-83
2023/02/13 16:46:29;;;;;;;;;;;;;;;;;;5094821;27;19985;-83
2023/02/13 16:48:55;;;;;;;;;;;;;;;;;;5093047;27;19919;-82
2023/02/13 16:51:20;;;;;;;;;;;;;;;;;;5091337;27;19923;-83
2023/02/13 16:53:46;;;;;;;;;;;;;;;;;;5110057;27;20026;-83
2023/02/13 16:56:12;;;;;;;;;;;;;;;;;;5097799;27;19954;-83
2023/02/13 16:58:38;;;;;;;;;;;;;;;;;;5094362;27;19992;-83
2023/02/13 17:01:04;;;;;;;;;;;;;;;;;;5104163;27;20379;-83
2023/02/13 17:03:30;;;;;;;;;;;;;;;;;;5095534;27;19919;-83
2023/02/13 17:05:56;;;;;;;;;;;;;;;;;;5084032;22;20094;-82
2023/02/13 17:08:26;;;;;;;;;;;;;;;;;;5054815;28;20414;-82
2023/02/13 17:10:52;;;;;;;;;;;;;;;;;;5044292;28;19999;-83
2023/02/13 17:13:18;;;;;;;;;;;;;;;;;;5041017;28;20583;-82
2023/02/13 17:15:44;;;;;;;;;;;;;;;;;;5043023;28;19965;-83
2023/02/13 17:18:10;;;;;;;;;;;;;;;;;;5029308;28;19928;-84
2023/02/13 17:20:35;;;;;;;;;;;;;;;;;;5062761;22;19931;-73
2023/02/13 17:23:01;;;;;;;;;;;;;;;;;;5102653;27;19932;-74
2023/02/13 17:25:28;;;;;;;;;;;;;;;;;;5101649;27;19920;-74
2023/02/13 17:27:54;;;;;;;;;;;;;;;;;;5094481;27;19920;-72